Time;durP1;ratioP1;P1;durP2;ratioP2;P2;SDS_P1;SDS_P2;PMS_P1;PMS_P2;Temp;Humidity;BMP_temperature;BMP_pressure;BME280_temperature;BME280_humidity;BME280_pressure;Samples;Min_cycle;Max_cycle;Signal;HPM_P1;HPM_P2
2021/12/19 00:00:47;;;;;;;13.20;6.97;;;;;;;1.78;75.66;100394.66;5089969;28;20105;-53
2021/12/19 00:11:12;;;;;;;11.35;6.45;;;;;;;1.69;74.36;100388.38;5089244;28;20390;-51
2021/12/19 00:13:40;;;;;;;10.23;6.22;;;;;;;1.71;74.78;100379.44;5089338;28;20024;-52
2021/12/19 00:16:06;;;;;;;12.43;6.20;;;;;;;1.75;74.58;100380.84;5088333;28;20110;-53
2021/12/19 00:18:31;;;;;;;11.60;5.93;;;;;;;1.55;75.43;100384.31;5089913;28;20116;-52
2021/12/19 00:20:57;;;;;;;8.98;5.47;;;;;;;1.60;74.96;100387.38;5089137;28;20016;-50
2021/12/19 00:23:22;;;;;;;11.07;5.80;;;;;;;1.59;75.26;100379.63;5090013;28;20025;-52
2021/12/19 00:25:47;;;;;;;13.20;6.43;;;;;;;1.60;75.09;100376.91;5090139;28;20020;-51
2021/12/19 00:28:13;;;;;;;10.77;6.10;;;;;;;1.61;74.49;100368.03;5089681;28;20027;-51
2021/12/19 00:30:38;;;;;;;9.50;5.93;;;;;;;1.40;74.55;100369.88;5089976;28;20298;-51
2021/12/19 00:33:04;;;;;;;10.75;5.60;;;;;;;1.42;74.66;100363.53;5092022;28;20020;-51
2021/12/19 00:35:29;;;;;;;10.10;5.70;;;;;;;1.50;74.82;100371.56;5094067;28;20047;-51
2021/12/19 00:37:55;;;;;;;9.55;5.55;;;;;;;1.38;74.63;100359.50;5093879;28;20032;-50
2021/12/19 00:40:20;;;;;;;10.40;5.68;;;;;;;1.34;75.50;100365.97;5093911;28;20435;-51
2021/12/19 00:42:51;;;;;;;11.63;6.00;;;;;;;1.44;75.07;100358.97;5093809;28;20071;-52
2021/12/19 00:45:26;;;;;;;10.35;6.25;;;;;;;1.31;74.41;100359.19;5092788;28;20028;-50
2021/12/19 00:47:51;;;;;;;12.48;6.47;;;;;;;1.39;74.38;100358.56;5092354;28;20396;-53
2021/12/19 00:50:17;;;;;;;14.32;6.35;;;;;;;1.45;74.40;100344.09;5094077;28;20506;-52
2021/12/19 00:52:46;;;;;;;9.90;6.03;;;;;;;1.39;74.17;100341.97;5093999;28;20091;-51
2021/12/19 00:55:19;;;;;;;10.93;5.95;;;;;;;1.25;74.59;100343.13;5092644;28;20099;-50
2021/12/19 00:57:44;;;;;;;10.05;5.95;;;;;;;1.41;73.53;100348.75;5091389;28;20020;-51
2021/12/19 01:00:11;;;;;;;10.07;5.80;;;;;;;1.32;74.16;100346.91;5093964;28;20080;-52
2021/12/19 01:02:36;;;;;;;10.43;6.22;;;;;;;1.25;74.59;100346.56;5093695;28;20094;-52
2021/12/19 01:05:03;;;;;;;10.18;6.10;;;;;;;1.31;73.67;100345.22;5093605;28;20288;-51
2021/12/19 01:07:29;;;;;;;11.80;5.80;;;;;;;1.33;73.87;100343.31;5093711;28;20103;-51
2021/12/19 01:09:54;;;;;;;9.43;5.32;;;;;;;1.12;74.44;100340.69;5093722;28;20162;-50
2021/12/19 01:12:20;;;;;;;12.40;5.50;;;;;;;1.17;74.48;100338.53;5093637;28;20065;-52
2021/12/19 01:14:45;;;;;;;8.70;5.15;;;;;;;1.27;75.21;100333.34;5093373;28;20048;-51
2021/12/19 01:17:11;;;;;;;9.57;5.22;;;;;;;1.19;74.64;100327.91;5093645;28;20070;-50
2021/12/19 01:19:36;;;;;;;9.27;5.22;;;;;;;1.27;74.48;100330.72;5093338;28;20035;-50
2021/12/19 01:22:03;;;;;;;8.60;5.05;;;;;;;1.08;74.42;100324.38;5093912;28;20024;-53
2021/12/19 01:24:28;;;;;;;9.40;5.13;;;;;;;1.04;74.62;100324.78;5093656;28;20023;-52
2021/12/19 01:26:54;;;;;;;10.00;6.00;;;;;;;1.16;75.07;100327.22;5093731;28;20043;-51
2021/12/19 01:29:19;;;;;;;9.75;5.88;;;;;;;1.30;73.46;100320.00;5093905;28;20027;-52
2021/12/19 01:31:45;;;;;;;11.25;6.22;;;;;;;1.15;74.41;100319.47;5093632;28;20051;-50
2021/12/19 01:34:13;;;;;;;12.82;6.45;;;;;;;1.15;74.05;100316.84;5093938;28;20046;-50
2021/12/19 01:36:42;;;;;;;9.55;5.63;;;;;;;1.15;74.53;100312.44;5093582;28;20028;-52
2021/12/19 01:39:08;;;;;;;12.70;6.82;;;;;;;1.28;74.56;100308.78;5093426;28;20115;-53
2021/12/19 01:41:34;;;;;;;13.85;7.07;;;;;;;1.27;74.37;100307.94;5093821;28;20035;-51
2021/12/19 01:43:59;;;;;;;10.63;5.97;;;;;;;1.42;73.11;100305.81;5092069;28;20028;-52
2021/12/19 01:46:25;;;;;;;11.52;6.03;;;;;;;1.37;72.78;100302.75;5093304;28;20039;-50
2021/12/19 01:48:50;;;;;;;11.40;6.30;;;;;;;1.48;72.37;100299.22;5091907;28;20387;-52
2021/12/19 01:51:16;;;;;;;9.00;5.85;;;;;;;1.49;71.47;100298.28;5093450;28;20039;-50
2021/12/19 01:53:41;;;;;;;9.38;5.30;;;;;;;1.67;71.57;100303.72;5093552;28;20081;-51
2021/12/19 01:56:07;;;;;;;10.10;5.50;;;;;;;1.83;70.63;100290.94;5093294;28;20107;-50
2021/12/19 01:58:34;;;;;;;8.85;5.10;;;;;;;1.69;70.86;100288.66;5093129;28;20043;-50
2021/12/19 02:01:00;;;;;;;10.00;5.88;;;;;;;1.61;70.62;100294.59;5093198;28;20085;-51
2021/12/19 02:03:25;;;;;;;10.13;6.20;;;;;;;1.67;71.71;100287.97;5091498;28;20036;-49
2021/12/19 02:05:51;;;;;;;10.60;6.07;;;;;;;1.57;72.30;100287.94;5093138;28;20056;-52
2021/12/19 02:08:17;;;;;;;9.40;5.88;;;;;;;1.42;71.80;100284.84;5092846;28;20032;-51
2021/12/19 02:10:42;;;;;;;9.13;5.20;;;;;;;1.40;72.76;100286.75;5093288;28;20093;-51
2021/12/19 02:13:10;;;;;;;10.60;5.88;;;;;;;1.35;71.56;100271.44;5093025;28;20305;-50
2021/12/19 02:15:35;;;;;;;9.50;4.90;;;;;;;1.32;71.48;100281.34;5092172;28;20024;-51
2021/12/19 02:18:05;;;;;;;9.32;5.40;;;;;;;1.41;71.75;100285.81;5091618;28;20077;-50
2021/12/19 02:20:32;;;;;;;9.90;5.40;;;;;;;1.55;71.16;100269.72;5092623;28;20028;-51
2021/12/19 02:22:58;;;;;;;8.80;4.93;;;;;;;1.48;70.89;100276.44;5092824;28;20257;-51
2021/12/19 02:25:23;;;;;;;10.70;4.88;;;;;;;1.45;71.01;100276.72;5092824;28;20451;-51
2021/12/19 02:27:48;;;;;;;8.50;4.93;;;;;;;1.51;70.48;100265.69;5092762;28;20036;-52
2021/12/19 02:30:14;;;;;;;8.80;4.90;;;;;;;1.31;71.33;100262.16;5092694;28;20108;-51
2021/12/19 02:32:40;;;;;;;8.07;4.68;;;;;;;1.28;72.23;100251.09;5092764;28;20035;-50
2021/12/19 02:35:12;;;;;;;9.15;5.25;;;;;;;1.13;71.67;100258.47;5091506;28;20467;-50
2021/12/19 02:48:17;;;;;;;10.57;5.78;;;;;;;1.28;72.12;100243.25;5091872;28;20038;-50
2021/12/19 02:50:48;;;;;;;10.25;5.60;;;;;;;1.35;71.28;100210.25;5092211;28;20032;-52
2021/12/19 02:53:13;;;;;;;12.65;5.90;;;;;;;1.52;71.47;100235.88;5092332;28;20028;-52
2021/12/19 02:55:39;;;;;;;11.68;5.93;;;;;;;1.53;70.53;100226.22;5091597;28;20035;-51
2021/12/19 02:58:05;;;;;;;9.15;5.72;;;;;;;1.45;70.14;100226.06;5092150;28;20028;-51
2021/12/19 03:00:30;;;;;;;10.07;5.65;;;;;;;1.37;70.62;100226.69;5092203;28;20368;-50
2021/12/19 03:02:55;;;;;;;10.57;5.93;;;;;;;1.38;71.15;100227.53;5091784;28;20024;-50
2021/12/19 03:05:21;;;;;;;10.20;5.63;;;;;;;1.48;71.13;100231.84;5091733;28;20076;-49
2021/12/19 03:07:49;;;;;;;9.18;5.65;;;;;;;1.53;70.07;100226.22;5091906;28;20058;-51
2021/12/19 03:18:10;;;;;;;10.48;5.30;;;;;;;1.46;70.60;100227.69;5091383;28;20046;-52
2021/12/19 03:20:37;;;;;;;7.72;5.10;;;;;;;1.54;69.74;100225.22;5091614;28;20035;-51
2021/12/19 03:23:03;;;;;;;7.43;4.90;;;;;;;1.64;69.88;100223.50;5091473;28;20038;-53
2021/12/19 03:25:29;;;;;;;9.07;5.30;;;;;;;1.43;70.09;100223.56;5091583;28;20085;-53
2021/12/19 03:27:55;;;;;;;8.88;5.05;;;;;;;1.46;69.58;100218.03;5091665;28;20035;-53
2021/12/19 03:30:20;;;;;;;8.90;5.22;;;;;;;1.72;69.17;100220.19;5091063;28;20024;-53
2021/12/19 03:32:46;;;;;;;8.35;5.28;;;;;;;1.69;69.21;100212.56;5090979;28;20499;-51
2021/12/19 03:35:11;;;;;;;8.40;4.68;;;;;;;1.65;68.55;100216.44;5090799;28;20039;-50
2021/12/19 03:37:37;;;;;;;8.88;5.18;;;;;;;1.75;68.35;100214.66;5090768;28;20072;-52
2021/12/19 03:42:33;;;;;;;;;;;;;;;1.52;69.05;100204.41;5091301;28;20119;-52
2021/12/19 03:44:58;;;;;;;8.32;4.80;;;;;;;1.32;70.60;100202.66;5090550;28;20002;-50
2021/12/19 03:47:24;;;;;;;9.35;4.90;;;;;;;1.49;69.55;100202.03;5090720;28;20062;-51
2021/12/19 03:49:49;;;;;;;8.82;5.13;;;;;;;1.42;69.55;100198.28;5090372;28;20137;-52
2021/12/19 03:52:15;;;;;;;8.40;5.22;;;;;;;1.67;70.07;100194.34;5090548;28;20506;-50
2021/12/19 03:54:40;;;;;;;7.25;4.95;;;;;;;1.65;68.55;100192.81;5090295;28;20082;-51
2021/12/19 03:57:06;;;;;;;7.95;4.97;;;;;;;1.64;68.97;100193.78;5070431;28;20029;-51
2021/12/19 03:59:31;;;;;;;8.15;5.22;;;;;;;1.74;68.15;100190.22;5070915;28;20086;-50
2021/12/19 04:01:57;;;;;;;8.02;4.90;;;;;;;1.31;69.67;100180.03;5070564;28;20035;-51
2021/12/19 04:04:22;;;;;;;8.48;4.97;;;;;;;1.59;68.01;100188.94;5070986;28;20042;-51
2021/12/19 04:06:48;;;;;;;7.85;4.75;;;;;;;1.78;68.35;100185.53;5069603;28;20113;-40
2021/12/19 04:09:13;;;;;;;7.55;4.75;;;;;;;1.27;69.56;100183.88;5070488;28;20424;-40
2021/12/19 04:11:39;;;;;;;8.32;5.28;;;;;;;1.73;68.41;100182.47;5085982;28;20103;-41
2021/12/19 04:14:04;;;;;;;9.55;4.70;;;;;;;1.74;68.31;100192.84;5070580;28;20479;-40
2021/12/19 04:16:30;;;;;;;9.18;5.20;;;;;;;1.70;68.15;100180.97;5070798;28;20027;-52
2021/12/19 04:18:56;;;;;;;8.85;5.10;;;;;;;1.73;67.26;100178.06;5070529;28;20502;-51
2021/12/19 04:21:22;;;;;;;8.07;4.70;;;;;;;1.85;68.32;100184.03;5070362;28;20059;-52
2021/12/19 04:23:47;;;;;;;7.93;4.70;;;;;;;1.76;67.12;100188.28;5085932;28;20123;-52
2021/12/19 04:26:13;;;;;;;8.07;4.80;;;;;;;1.71;68.07;100190.50;5070797;28;20032;-52
2021/12/19 04:28:38;;;;;;;8.18;5.30;;;;;;;1.78;67.94;100180.28;5070555;28;20392;-52
2021/12/19 04:31:04;;;;;;;7.80;4.80;;;;;;;1.67;67.60;100183.84;5070511;28;20376;-51
2021/12/19 04:33:34;;;;;;;8.00;4.65;;;;;;;1.48;68.04;100195.13;5070539;28;20039;-53
2021/12/19 04:36:01;;;;;;;7.60;4.40;;;;;;;1.62;68.19;100196.56;5070179;28;20024;-52
2021/12/19 05:00:08;;;;;;;6.72;4.53;;;;;;;1.20;68.78;100170.47;5090555;28;20515;-41
2021/12/19 05:02:57;;;;;;;7.22;4.20;;;;;;;0.95;69.69;100163.88;5090558;28;20038;-41
2021/12/19 05:16:30;;;;;;;7.72;5.07;;;;;;;1.24;69.32;100156.13;5090508;28;20089;-41
2021/12/19 05:19:03;;;;;;;7.25;4.45;;;;;;;1.23;69.54;100162.31;5093518;28;20024;-41
2021/12/19 05:21:29;;;;;;;12.38;6.63;;;;;;;1.26;69.29;100169.94;5094302;28;20073;-41
2021/12/19 05:26:26;;;;;;;25.70;13.20;;;;;;;1.41;68.70;100161.69;5094114;28;20161;-41
2021/12/19 05:28:52;;;;;;;15.60;8.07;;;;;;;1.31;69.55;100164.28;5092564;28;20064;-41
2021/12/19 05:31:21;;;;;;;9.18;5.10;;;;;;;1.41;68.31;100164.31;5094074;28;20028;-41
2021/12/19 05:33:47;;;;;;;8.85;5.22;;;;;;;1.16;69.28;100159.44;5093959;28;20020;-41
2021/12/19 05:46:59;;;;;;;6.60;4.65;;;;;;;1.23;68.96;100153.66;5093529;28;20069;-39
2021/12/19 05:49:25;;;;;;;9.25;5.13;;;;;;;1.42;68.67;100151.06;5093443;28;20051;-41
2021/12/19 05:51:50;;;;;;;8.10;4.72;;;;;;;1.31;68.34;100157.28;5093704;28;20527;-40
2021/12/19 05:54:16;;;;;;;9.20;5.28;;;;;;;1.56;67.35;100158.56;5092215;28;20024;-40
2021/12/19 05:56:41;;;;;;;38.70;19.10;;;;;;;1.25;68.01;100156.97;5093538;28;20031;-40
2021/12/19 05:59:08;;;;;;;10.07;5.40;;;;;;;1.17;68.29;100153.19;5091939;28;20063;-40
2021/12/19 06:01:34;;;;;;;7.88;5.07;;;;;;;1.48;67.43;100153.16;5092811;28;20027;-41
2021/12/19 06:03:59;;;;;;;9.00;4.95;;;;;;;1.40;66.94;100155.63;5093199;28;20226;-40
2021/12/19 06:06:26;;;;;;;8.52;5.57;;;;;;;1.31;67.37;100148.56;5092856;28;20043;-40
2021/12/19 06:08:52;;;;;;;7.07;4.50;;;;;;;1.58;66.82;100152.34;5093196;28;20102;-41
2021/12/19 06:11:18;;;;;;;8.50;4.35;;;;;;;1.98;66.23;100148.78;5093336;28;20030;-41
2021/12/19 06:13:43;;;;;;;6.57;4.18;;;;;;;1.72;65.97;100146.72;5091610;28;20012;-40
2021/12/19 06:16:09;;;;;;;6.38;4.30;;;;;;;1.90;65.64;100145.06;5091873;28;20031;-41
2021/12/19 06:18:34;;;;;;;7.22;4.18;;;;;;;2.06;64.01;100139.28;5092914;28;20085;-41
2021/12/19 06:21:00;;;;;;;8.82;5.45;;;;;;;2.29;64.57;100144.22;5092940;28;20108;-40
2021/12/19 06:23:25;;;;;;;11.45;5.82;;;;;;;2.61;63.71;100136.03;5092657;28;20037;-41
2021/12/19 06:25:51;;;;;;;7.03;4.03;;;;;;;2.92;61.79;100139.22;5092816;28;20020;-41
2021/12/19 06:28:17;;;;;;;7.47;4.50;;;;;;;3.36;62.06;100135.97;5092252;28;20072;-40
2021/12/19 06:30:43;;;;;;;6.50;4.25;;;;;;;3.27;61.46;100137.69;5091559;28;20035;-40
2021/12/19 06:33:08;;;;;;;7.32;4.18;;;;;;;3.52;61.92;100132.69;5092052;28;20024;-40
2021/12/19 06:35:34;;;;;;;6.75;4.22;;;;;;;3.99;60.51;100127.22;5091823;28;20057;-40
2021/12/19 06:37:59;;;;;;;5.65;3.97;;;;;;;3.74;59.62;100120.91;5092525;28;20024;-42
2021/12/19 06:40:25;;;;;;;6.70;4.57;;;;;;;3.96;58.53;100114.38;5073947;28;20405;-41
2021/12/19 06:42:50;;;;;;;5.20;3.50;;;;;;;3.90;58.49;100114.97;5090538;28;20511;-41
2021/12/19 06:45:17;;;;;;;6.10;4.20;;;;;;;4.09;59.32;100112.19;5091874;28;20024;-41
2021/12/19 06:47:42;;;;;;;6.28;4.03;;;;;;;4.20;57.49;100108.47;5091562;28;20024;-41
2021/12/19 06:50:08;;;;;;;7.53;4.20;;;;;;;4.64;56.19;100102.34;5091793;28;20024;-42
2021/12/19 06:52:34;;;;;;;6.90;4.00;;;;;;;4.86;55.40;100098.34;5091873;28;20093;-40
2021/12/19 06:55:00;;;;;;;5.88;3.90;;;;;;;5.09;55.01;100091.50;5091287;28;20027;-40
2021/12/19 06:57:26;;;;;;;6.63;3.92;;;;;;;4.93;55.33;100094.09;5091513;28;20490;-41
2021/12/19 06:59:51;;;;;;;5.88;4.00;;;;;;;4.73;54.61;100090.03;5090959;28;20499;-40
2021/12/19 07:02:17;;;;;;;6.68;4.00;;;;;;;4.97;54.14;100092.78;5090938;28;20020;-41
2021/12/19 07:04:43;;;;;;;6.10;3.63;;;;;;;4.53;55.43;100092.88;5090969;28;20039;-41
2021/12/19 07:07:08;;;;;;;4.93;3.78;;;;;;;4.51;54.44;100068.47;5091355;28;20581;-41
2021/12/19 07:09:34;;;;;;;6.20;3.90;;;;;;;4.92;54.62;100095.06;5091359;28;20028;-41
2021/12/19 07:11:59;;;;;;;7.25;4.10;;;;;;;5.12;54.02;100094.81;5091405;28;20048;-42
2021/12/19 07:14:25;;;;;;;7.68;4.45;;;;;;;4.81;54.22;100087.44;5091039;28;20475;-41
2021/12/19 07:16:50;;;;;;;29.38;15.07;;;;;;;4.89;54.45;100096.22;5085184;28;20027;-41
2021/12/19 07:19:16;;;;;;;7.78;4.47;;;;;;;4.76;54.29;100090.56;5090748;28;20427;-41
2021/12/19 07:21:41;;;;;;;7.22;4.13;;;;;;;5.25;53.52;100089.91;5090848;28;20039;-42
2021/12/19 07:24:07;;;;;;;6.45;4.00;;;;;;;5.48;52.41;100098.03;5087918;28;20496;-44
2021/12/19 07:26:32;;;;;;;5.60;3.85;;;;;;;5.15;52.57;100089.22;5089079;28;20050;-42
2021/12/19 07:28:58;;;;;;;6.65;3.67;;;;;;;4.75;53.74;100090.72;5088847;28;20469;-46
2021/12/19 07:31:23;;;;;;;7.18;3.85;;;;;;;5.04;53.27;100091.16;5090767;28;20020;-45
2021/12/19 07:33:49;;;;;;;5.78;3.50;;;;;;;4.58;54.02;100098.50;5090609;28;20040;-45
2021/12/19 07:36:17;;;;;;;6.57;3.65;;;;;;;5.38;52.58;100100.00;5090437;28;20031;-45
2021/12/19 07:39:04;;;;;;;6.88;3.75;;;;;;;5.87;51.54;100098.28;5090428;28;20036;-46
2021/12/19 07:41:29;;;;;;;5.40;3.40;;;;;;;5.74;51.46;100092.66;5085213;28;20042;-44
2021/12/19 07:43:55;;;;;;;4.68;3.28;;;;;;;5.24;52.02;100080.34;5090049;28;20024;-48
2021/12/19 07:46:20;;;;;;;5.22;3.75;;;;;;;5.62;51.86;100083.41;5090153;28;20092;-46
2021/12/19 07:48:46;;;;;;;7.28;3.80;;;;;;;5.44;51.99;100079.06;5090228;28;20122;-44
2021/12/19 07:51:11;;;;;;;5.68;3.78;;;;;;;5.73;51.11;100076.97;5090386;28;20030;-43
2021/12/19 07:53:37;;;;;;;7.18;4.38;;;;;;;6.76;59.98;100089.59;5090006;28;20039;-44
2021/12/19 07:56:03;;;;;;;5.72;4.05;;;;;;;6.63;52.09;100074.28;5090108;28;20028;-44
2021/12/19 07:58:28;;;;;;;6.97;4.03;;;;;;;7.05;49.74;100078.44;5088185;28;20066;-43
2021/12/19 08:00:54;;;;;;;7.03;4.10;;;;;;;7.40;51.41;100077.06;5089721;28;20486;-43
2021/12/19 08:03:19;;;;;;;5.53;3.97;;;;;;;7.12;51.54;100066.16;5090147;28;20386;-42
2021/12/19 08:05:45;;;;;;;5.80;3.63;;;;;;;6.34;49.05;100056.31;5086478;28;20117;-56
2021/12/19 08:08:15;;;;;;;5.80;3.53;;;;;;;6.09;50.54;100058.19;5081445;28;20035;-56
2021/12/19 08:13:06;;;;;;;6.70;3.90;;;;;;;6.00;50.95;100055.56;5087723;28;20091;-57
2021/12/19 08:15:33;;;;;;;5.55;3.90;;;;;;;6.60;48.55;100045.53;5085942;28;20111;-59
2021/12/19 08:17:58;;;;;;;6.07;3.90;;;;;;;6.22;49.27;100043.47;5085917;28;20024;-57
2021/12/19 08:20:25;;;;;;;5.57;3.90;;;;;;;6.45;49.51;100046.25;5089459;28;20031;-57
2021/12/19 08:22:51;;;;;;;5.45;3.83;;;;;;;6.52;48.47;100038.44;5088084;28;20454;-56
2021/12/19 08:25:17;;;;;;;6.07;3.70;;;;;;;6.25;49.29;100037.03;5089352;28;20502;-57
2021/12/19 08:27:43;;;;;;;8.55;3.90;;;;;;;6.29;49.48;100030.41;5089287;28;20023;-56
2021/12/19 08:30:09;;;;;;;6.55;3.95;;;;;;;6.08;49.66;100025.66;5087825;28;20028;-56
2021/12/19 08:32:35;;;;;;;7.28;4.18;;;;;;;6.41;49.31;100026.41;5087818;28;20071;-55
2021/12/19 08:35:01;;;;;;;7.10;4.10;;;;;;;6.57;48.68;100024.72;5088969;28;20494;-56
2021/12/19 08:37:26;;;;;;;6.63;3.80;;;;;;;6.52;48.66;100021.75;5088156;28;20066;-54
2021/12/19 08:39:52;;;;;;;6.03;4.07;;;;;;;6.54;48.97;100019.78;5088763;28;20520;-55
2021/12/19 08:42:17;;;;;;;6.50;4.22;;;;;;;6.57;48.59;100008.88;5088897;28;20024;-53
2021/12/19 08:44:43;;;;;;;6.82;4.38;;;;;;;6.66;48.60;100015.75;5088376;28;20027;-54
2021/12/19 08:47:10;;;;;;;5.97;4.00;;;;;;;6.79;47.71;100010.72;5088354;28;20503;-51
2021/12/19 08:49:35;;;;;;;8.68;4.72;;;;;;;7.05;47.75;100005.16;5088487;28;20065;-52
2021/12/19 08:52:02;;;;;;;6.97;4.30;;;;;;;7.04;47.93;100007.97;5089061;28;20377;-54
2021/12/19 08:54:27;;;;;;;8.68;4.30;;;;;;;7.19;47.54;100005.41;5093118;28;20483;-52
2021/12/19 08:56:53;;;;;;;6.97;4.63;;;;;;;6.77;47.77;99966.94;5093341;28;20031;-51
2021/12/19 08:59:18;;;;;;;7.55;3.83;;;;;;;6.22;48.79;99989.78;5093061;28;20027;-54
2021/12/19 09:01:44;;;;;;;6.97;3.88;;;;;;;6.13;49.07;99988.16;5092918;28;20128;-51
2021/12/19 09:04:09;;;;;;;8.88;3.90;;;;;;;6.04;49.55;99987.34;5093097;28;20023;-53
2021/12/19 09:06:35;;;;;;;6.82;4.07;;;;;;;6.14;50.09;99981.88;5091858;28;20050;-51
2021/12/19 09:09:02;;;;;;;5.93;4.10;;;;;;;5.98;50.49;99972.19;5093666;28;20055;-51
2021/12/19 09:11:27;;;;;;;6.95;4.15;;;;;;;5.88;50.28;99973.16;5093995;28;20091;-53
2021/12/19 09:13:53;;;;;;;7.10;3.95;;;;;;;6.01;50.69;99958.63;5091839;28;20016;-51
2021/12/19 09:16:18;;;;;;;6.70;4.15;;;;;;;5.82;51.87;99959.78;5091411;28;20071;-51
2021/12/19 09:18:44;;;;;;;6.28;3.92;;;;;;;5.71;50.97;99955.66;5074843;28;20056;-50
2021/12/19 09:21:09;;;;;;;6.53;3.80;;;;;;;5.61;51.59;99950.53;5091327;28;20020;-52
2021/12/19 09:23:35;;;;;;;8.52;4.60;;;;;;;5.91;50.58;99942.94;5092799;28;20023;-52
2021/12/19 09:26:00;;;;;;;8.88;4.50;;;;;;;6.03;50.63;99941.59;5092984;28;20453;-39
2021/12/19 09:28:26;;;;;;;6.68;4.18;;;;;;;5.96;50.20;99938.00;5093190;28;20024;-39
2021/12/19 09:30:51;;;;;;;6.25;4.20;;;;;;;6.18;50.22;99931.16;5093251;28;20483;-39
2021/12/19 09:33:17;;;;;;;6.72;4.43;;;;;;;6.21;50.36;99922.09;5092762;28;20109;-39
2021/12/19 09:35:42;;;;;;;8.98;4.57;;;;;;;6.21;50.02;99906.22;5093060;28;20027;-39
2021/12/19 09:38:08;;;;;;;7.65;4.22;;;;;;;6.39;49.51;99906.78;5093292;28;20069;-39
2021/12/19 09:40:36;;;;;;;8.07;4.28;;;;;;;6.21;50.08;99907.03;5093296;28;20411;-39
2021/12/19 09:43:09;;;;;;;6.22;4.30;;;;;;;6.44;54.39;99904.47;5092926;28;20020;-38
2021/12/19 09:45:34;;;;;;;6.45;4.30;;;;;;;7.08;50.36;99897.31;5092817;28;20081;-39
2021/12/19 09:48:00;;;;;;;6.93;4.30;;;;;;;6.90;50.58;99902.91;5092476;28;20039;-38
2021/12/19 09:50:26;;;;;;;10.93;4.18;;;;;;;6.21;49.98;99879.78;5092615;28;20020;-39
2021/12/19 09:52:51;;;;;;;8.75;4.30;;;;;;;6.20;50.37;99868.38;5093062;28;20032;-38
2021/12/19 09:55:21;;;;;;;5.47;4.07;;;;;;;6.38;50.70;99865.50;5092818;28;20031;-39
2021/12/19 09:57:46;;;;;;;;;;;;;;;6.56;49.75;99859.94;5093484;28;20020;-39
2021/12/19 10:00:12;;;;;;;7.78;4.35;;;;;;;6.49;50.14;99856.34;5092838;28;20420;-39
2021/12/19 10:02:38;;;;;;;13.07;4.63;;;;;;;6.57;49.51;99852.84;5092912;28;20024;-39
2021/12/19 10:05:16;;;;;;;10.40;4.55;;;;;;;6.68;49.73;99851.59;5089995;28;20677;-39
2021/12/19 10:07:47;;;;;;;7.78;4.55;;;;;;;6.29;50.08;99848.03;5092619;28;20050;-39
2021/12/19 10:10:14;;;;;;;6.68;4.60;;;;;;;6.35;50.13;99842.06;5092362;28;20031;-39
2021/12/19 10:15:16;;;;;;;8.48;5.10;;;;;;;6.16;51.21;99834.56;5092216;28;20384;-39
2021/12/19 10:17:42;;;;;;;9.23;5.30;;;;;;;6.81;49.76;99836.78;5092128;28;20031;-39
2021/12/19 10:20:09;;;;;;;10.80;5.32;;;;;;;7.20;49.15;99827.09;5092654;28;20020;-38
2021/12/19 10:22:36;;;;;;;10.10;6.32;;;;;;;7.42;47.80;99828.00;5092658;28;20016;-39
2021/12/19 10:25:18;;;;;;;8.23;5.05;;;;;;;6.78;48.66;99825.78;5092442;28;20027;-39
2021/12/19 10:27:54;;;;;;;10.30;5.55;;;;;;;6.87;49.59;99808.81;5092185;28;20020;-38
2021/12/19 10:30:23;;;;;;;9.18;5.50;;;;;;;7.16;48.50;99815.19;5092015;28;20028;-38
2021/12/19 10:32:56;;;;;;;9.57;5.75;;;;;;;7.11;49.92;99817.56;5091984;28;20561;-38
2021/12/19 10:35:23;;;;;;;7.80;4.55;;;;;;;7.10;48.00;99813.25;5092198;28;20095;-39
2021/12/19 10:37:48;;;;;;;9.32;4.45;;;;;;;6.79;48.63;99807.06;5092254;28;20023;-38
2021/12/19 10:40:14;;;;;;;8.05;4.75;;;;;;;6.64;49.59;99801.72;5092178;28;20639;-39
2021/12/19 10:42:46;;;;;;;8.38;4.80;;;;;;;6.83;48.96;99797.78;5091897;28;20077;-39
2021/12/19 10:45:30;;;;;;;10.07;4.60;;;;;;;6.43;49.30;99801.53;5090117;28;20111;-38
2021/12/19 10:48:09;;;;;;;8.18;4.65;;;;;;;6.52;49.29;99802.31;5091723;28;20020;-38
2021/12/19 10:50:51;;;;;;;9.15;4.22;;;;;;;6.46;49.38;99793.25;5091586;28;20032;-39
2021/12/19 10:53:17;;;;;;;8.30;4.80;;;;;;;6.66;49.30;99780.38;5091347;28;20054;-39
2021/12/19 10:55:45;;;;;;;8.07;4.90;;;;;;;6.64;49.55;99774.44;5091698;28;20032;-39
2021/12/19 10:58:24;;;;;;;8.07;4.50;;;;;;;6.52;49.80;99762.66;5091668;28;20035;-37
2021/12/19 11:01:06;;;;;;;6.15;4.07;;;;;;;6.70;49.52;99764.97;5091535;28;20024;-40
2021/12/19 11:03:40;;;;;;;9.02;5.07;;;;;;;6.69;49.63;99753.59;5091399;28;20036;-39
2021/12/19 11:06:18;;;;;;;7.18;4.95;;;;;;;6.62;49.13;99716.44;5088331;28;20063;-40
2021/12/19 11:08:43;;;;;;;7.82;4.90;;;;;;;7.12;49.74;99742.44;5091207;28;20122;-39
2021/12/19 11:11:10;;;;;;;9.88;4.80;;;;;;;7.43;48.31;99737.81;5091273;28;20421;-39
2021/12/19 11:13:35;;;;;;;8.43;5.00;;;;;;;7.14;49.72;99727.19;5090966;28;20016;-49
2021/12/19 11:16:01;;;;;;;9.88;4.88;;;;;;;6.82;50.28;99719.41;5090685;28;20035;-52
2021/12/19 11:18:26;;;;;;;8.10;5.32;;;;;;;6.72;50.71;99720.66;5089563;28;20476;-50
2021/12/19 11:20:52;;;;;;;7.82;5.03;;;;;;;7.35;52.73;99714.09;5091112;28;20024;-50
2021/12/19 11:23:18;;;;;;;7.78;5.10;;;;;;;7.36;50.31;99713.06;5091545;28;20036;-52
2021/12/19 11:25:44;;;;;;;9.60;5.30;;;;;;;7.30;49.89;99708.50;5091115;28;20502;-49
2021/12/19 11:28:09;;;;;;;8.55;5.47;;;;;;;7.30;49.43;99708.50;5091540;28;20027;-50
2021/12/19 11:30:35;;;;;;;8.02;4.95;;;;;;;7.29;48.59;99691.00;5089922;28;20031;-51
2021/12/19 11:33:06;;;;;;;8.55;5.38;;;;;;;7.10;49.07;99663.25;5090665;28;20103;-52
2021/12/19 11:35:36;;;;;;;9.88;5.82;;;;;;;7.47;49.08;99680.03;5090795;28;20024;-52
2021/12/19 11:38:02;;;;;;;8.57;5.10;;;;;;;7.02;48.91;99680.03;5088851;28;20471;-52
2021/12/19 11:40:34;;;;;;;8.32;5.22;;;;;;;7.05;49.42;99676.19;5088744;28;20403;-50
2021/12/19 11:43:17;;;;;;;8.85;5.05;;;;;;;7.49;49.29;99675.34;5067162;28;20020;-51
2021/12/19 11:45:48;;;;;;;6.72;4.80;;;;;;;7.20;48.28;99668.28;5086364;28;20165;-51
2021/12/19 11:48:51;;;;;;;9.63;5.28;;;;;;;7.11;49.18;99659.59;5088975;28;20036;-48
2021/12/19 11:51:19;;;;;;;9.23;4.68;;;;;;;6.94;49.42;99651.00;5087703;28;20039;-51
2021/12/19 11:53:44;;;;;;;9.98;5.28;;;;;;;7.00;49.63;99650.28;5087418;28;20026;-48
2021/12/19 11:56:11;;;;;;;8.23;4.95;;;;;;;7.18;48.69;99649.91;5089306;28;20024;-48
2021/12/19 11:58:47;;;;;;;8.60;5.50;;;;;;;7.16;48.45;99640.50;5089956;28;20107;-48
2021/12/19 12:01:14;;;;;;;9.07;5.20;;;;;;;7.34;47.67;99638.31;5088516;28;20106;-51
2021/12/19 12:04:08;;;;;;;9.80;5.07;;;;;;;7.51;48.00;99632.81;5086659;28;20027;-49
2021/12/19 12:06:38;;;;;;;8.75;5.38;;;;;;;7.32;47.92;99629.72;5084764;28;20051;-49
2021/12/19 12:09:23;;;;;;;7.63;4.00;;;;;;;7.09;47.88;99615.81;5087525;28;20483;-50
2021/12/19 12:12:04;;;;;;;9.52;5.05;;;;;;;7.15;47.45;99604.47;5090343;28;20153;-49
2021/12/19 12:14:35;;;;;;;7.75;5.03;;;;;;;7.16;48.14;99611.41;5090167;28;20039;-49
2021/12/19 12:17:16;;;;;;;7.82;4.40;;;;;;;7.20;47.62;99602.09;5090380;28;20048;-48
2021/12/19 12:19:52;;;;;;;8.73;4.85;;;;;;;7.00;48.22;99600.00;5088901;28;20044;-51
2021/12/19 12:23:05;;;;;;;6.30;4.53;;;;;;;6.88;47.73;99601.47;5090377;28;20147;-48
2021/12/19 12:25:27;;;;;;;;;;;;;;;6.79;48.17;99603.38;5087649;28;20486;-39
2021/12/19 12:27:55;;;;;;;8.80;4.88;;;;;;;6.90;48.04;99599.47;5089613;28;19915;-39
2021/12/19 12:30:29;;;;;;;9.23;4.80;;;;;;;7.25;47.27;99599.69;5090099;28;20035;-39
2021/12/19 12:32:55;;;;;;;8.18;4.63;;;;;;;7.23;47.18;99584.03;5090224;28;20031;-39
2021/12/19 12:35:21;;;;;;;7.70;4.82;;;;;;;7.08;47.29;99577.09;5089924;28;20075;-39
2021/12/19 12:37:48;;;;;;;7.30;5.13;;;;;;;7.40;47.41;99562.63;5090264;28;20030;-38
2021/12/19 12:40:42;;;;;;;7.47;5.10;;;;;;;7.30;47.08;99565.56;5089530;28;20394;-39
2021/12/19 12:43:10;;;;;;;10.25;5.60;;;;;;;7.46;48.16;99558.41;5090336;28;20035;-39
2021/12/19 12:45:57;;;;;;;9.60;5.85;;;;;;;7.97;48.56;99555.63;5090257;28;20028;-49
2021/12/19 12:48:27;;;;;;;9.90;6.30;;;;;;;7.58;49.54;99548.97;5089989;28;20126;-52
2021/12/19 12:50:52;;;;;;;11.27;6.30;;;;;;;7.48;49.73;99548.44;5089778;28;20020;-50
2021/12/19 12:53:35;;;;;;;9.32;6.22;;;;;;;7.35;50.41;99543.81;5089920;28;20020;-48
2021/12/19 12:56:05;;;;;;;9.35;6.38;;;;;;;7.41;49.81;99538.59;5089349;28;20074;-50